UADDUTDK

Guest
Details From UADD - TARAZ
To UTDK - KULYAB
Flight Number -
Tags generated
Created
Modified
Stats Distance 305 nm / 565 km
Max Altitude 35,000 ft / 10,668 m
Waypoints 8
Social Downloads 0
Likes 0
Share VATSIM

Download

Looking for another format? Having issues loading an existing format? Contact us
Advertisement - Login to hide

Notes

Basic altitude profile: - Ascent Rate: 2500ft/min - Ascent Speed: 250kts - Cruise Altitude: 35000ft - Cruise Speed: 420kts - Descent Rate: 1500ft/min - Descent Speed: 250kts Options: - Use NATs: yes - Use PACOTS: yes - Use low airways: yes - Use high airways: yes

Route

UADD FIKAS BODAN GIKOD MADON 4000N07000E MIRZO UTDK

ID Type Via Altitude Latitude Longitude Leg Dist Tot Dist Heading (true) Name
O UADD APT - 0 ft / 0 m 42.85353˚ 71.30369˚ - 0 nm - TARAZ
FIKAS FIX - 30,600 ft / 9,327 m 41.46667˚ 70.83333˚ 85 nm 85 nm 194° / 194° -
BODAN FIX - 34,000 ft / 10,363 m 40.93833˚ 70.35667˚ 38 nm 124 nm 214° / 214° -
GIKOD FIX - 34,000 ft / 10,363 m 40.88000˚ 70.34500˚ 3 nm 127 nm 189° / 189° -
MADON FIX - 35,000 ft / 10,668 m 40.68333˚ 70.36833˚ 11 nm 139 nm 175° / 175° -
4000N07000E LATLON - 24,900 ft / 7,590 m 40.00000˚ 70.00000˚ 44 nm 184 nm 202° / 202° -
MIRZO FIX - 18,900 ft / 5,761 m 39.53333˚ 69.91667˚ 28 nm 212 nm 188° / 188° -
O UTDK APT - 0 ft / 0 m 37.98833˚ 69.80667˚ 92 nm 305 nm 183° / 183° KULYAB

Altitude Profile

Advertisement - Login to hide

Weather


0- 5 10 15 20 25 30 35+ Temperature / ° C

Clouds and Precipitation
Forecast for 2017-12-19 00:00 UTC. Updated 2 hours ago

Ground ~20,000 ft ~40,000 ft Winds

UADD

Details ICAO UADD (DMB)
Name TARAZ
Region Kazakhstan and Kyrgyzstan
Timezone Asia/Almaty (UTC+6.0)
Stats Elevation 2,184 ft / 666 m (AMSL)
Location 42.853533° 71.303693°
Runways 1
Magnetic Variation 5.817° E

METAR

UADD 182000Z 14003MPS 9999 SCT046 BKN100 01/M02 Q1025 NOSIG RMK QFE712/0949

Decode

TAF

Not found

Departure Runways

ID Width Length Bearing (true) Bearing (mag) Surface Threshold Offset Overrun Length
13 148 ft / 45 m 9,523 ft / 2,903 m 137.09° 131.27° Asphalt 0 ft / 0 m 0 ft / 0 m
31 148 ft / 45 m 9,523 ft / 2,903 m 317.11° 311.29° Asphalt 722 ft / 220 m 0 ft / 0 m

UTDK

Details ICAO UTDK (TJU)
Name KULYAB
Region Tajikistan, Turkmenistan and Uzbekistan
Timezone Asia/Dushanbe (UTC+5.0)
Stats Elevation 2,293 ft / 699 m (AMSL)
Location 37.988334° 69.806667°
Runways 1
Magnetic Variation 4.171° E

METAR

UTDK 182030Z 00000MPS 9999 NSC 04/01 Q1025 R01/09//70 RMK QFE711/0948

Decode

TAF

Not found

Destination Runways

ID Width Length Bearing (true) Bearing (mag) Surface Threshold Offset Overrun Length
01 137 ft / 42 m 10,147 ft / 3,093 m 16.46° 12.29° Asphalt 0 ft / 0 m 0 ft / 0 m
19 137 ft / 42 m 10,147 ft / 3,093 m 196.47° 192.30° Asphalt 0 ft / 0 m 0 ft / 0 m